Time;durP1;ratioP1;P1;durP2;ratioP2;P2;SDS_P1;SDS_P2;PMS_P1;PMS_P2;Temp;Humidity;BMP_temperature;BMP_pressure;BME280_temperature;BME280_humidity;BME280_pressure;Samples;Min_cycle;Max_cycle;Signal;HPM_P1;HPM_P2
2022/06/04 00:00:52;;;;;;;1.35;1.20;;;21.90;46.70;;;;;;5034667;28;20028;-77
2022/06/04 00:03:19;;;;;;;1.60;1.30;;;21.80;46.60;;;;;;5056068;28;20048;-78
2022/06/04 00:05:54;;;;;;;1.63;1.00;;;21.80;46.50;;;;;;5046723;28;20526;-78
2022/06/04 00:08:20;;;;;;;1.98;1.10;;;21.70;47.40;;;;;;5050660;28;20032;-78
2022/06/04 00:16:20;;;;;;;2.23;1.20;;;21.60;47.00;;;;;;5031812;28;20512;-77
2022/06/04 00:18:46;;;;;;;1.75;1.10;;;21.60;47.20;;;;;;5050933;28;20417;-77
2022/06/04 00:21:12;;;;;;;2.15;1.10;;;21.60;47.20;;;;;;5041931;28;20405;-78
2022/06/04 00:23:39;;;;;;;1.60;1.40;;;21.50;47.30;;;;;;5054416;28;20052;-77
2022/06/04 00:26:07;;;;;;;1.73;1.30;;;21.50;47.30;;;;;;5036990;28;20245;-77
2022/06/04 00:28:34;;;;;;;1.40;1.17;;;21.50;47.60;;;;;;5028953;28;20075;-78
2022/06/04 00:31:00;;;;;;;1.98;1.10;;;21.50;47.40;;;;;;5040932;28;20143;-79
2022/06/04 00:33:26;;;;;;;1.85;1.20;;;21.40;47.40;;;;;;5054673;28;20108;-77
2022/06/04 00:35:55;;;;;;;1.27;1.13;;;21.40;47.50;;;;;;5027769;28;20758;-77
2022/06/04 00:38:23;;;;;;;1.30;1.15;;;21.40;47.80;;;;;;5052964;28;20491;-77
2022/06/04 00:40:51;;;;;;;1.27;1.17;;;21.30;47.80;;;;;;5035722;28;20292;-78
2022/06/04 00:43:18;;;;;;;1.65;1.10;;;21.30;47.70;;;;;;5030962;28;20507;-78
2022/06/04 00:46:35;;;;;;;1.80;1.30;;;21.30;47.70;;;;;;5036457;28;20085;-79
2022/06/04 00:49:01;;;;;;;1.35;1.08;;;21.30;48.60;;;;;;5035329;28;20040;-79
2022/06/04 00:51:27;;;;;;;1.47;1.10;;;21.20;47.60;;;;;;5030412;28;20130;-80
2022/06/04 00:53:55;;;;;;;1.80;1.20;;;21.20;47.70;;;;;;5062644;28;20072;-77
2022/06/04 00:57:02;;;;;;;2.17;1.20;;;21.20;47.80;;;;;;5039499;28;20685;-78
2022/06/04 00:59:45;;;;;;;1.88;1.00;;;21.10;48.60;;;;;;5030965;28;20068;-78
2022/06/04 01:02:35;;;;;;;2.37;1.00;;;21.10;48.10;;;;;;5035023;28;20685;-79
2022/06/04 01:05:38;;;;;;;1.30;1.20;;;21.00;48.60;;;;;;5050643;28;20044;-80
2022/06/04 01:08:19;;;;;;;2.38;1.15;;;21.00;48.70;;;;;;5041094;28;20033;-80
2022/06/04 01:11:10;;;;;;;1.52;1.08;;;20.90;48.30;;;;;;5038438;28;20467;-79
2022/06/04 01:13:49;;;;;;;1.65;1.00;;;20.80;48.80;;;;;;5041086;28;20035;-80
2022/06/04 01:16:19;;;;;;;1.80;1.10;;;20.80;48.70;;;;;;5046511;28;20044;-80
2022/06/04 01:19:07;;;;;;;3.65;1.10;;;20.70;48.00;;;;;;5047190;28;20084;-80
2022/06/04 01:21:54;;;;;;;2.03;1.02;;;20.70;48.60;;;;;;5045924;28;20052;-81
2022/06/04 01:24:56;;;;;;;1.50;0.90;;;20.60;48.90;;;;;;5035027;28;20045;-79
2022/06/04 01:27:25;;;;;;;1.65;1.10;;;20.60;49.30;;;;;;5048589;28;20646;-81
2022/06/04 01:30:01;;;;;;;2.67;1.40;;;20.60;48.30;;;;;;5019962;28;20363;-79
2022/06/04 01:32:40;;;;;;;1.45;1.10;;;20.50;48.40;;;;;;5048397;28;20456;-80
2022/06/04 01:35:16;;;;;;;1.38;1.17;;;20.50;48.90;;;;;;5045136;28;20040;-79
2022/06/04 01:37:56;;;;;;;2.42;1.10;;;20.50;48.70;;;;;;5034899;28;20060;-80
2022/06/04 01:43:16;;;;;;;1.60;0.93;;;20.50;48.90;;;;;;5034744;28;20040;-79
2022/06/04 01:45:44;;;;;;;1.70;1.10;;;20.40;49.30;;;;;;5020261;28;20033;-79
2022/06/04 01:48:13;;;;;;;1.75;1.00;;;20.40;48.90;;;;;;5036663;28;20032;-80
2022/06/04 01:50:48;;;;;;;2.00;1.23;;;20.30;48.90;;;;;;5052724;28;20132;-79
2022/06/04 01:53:16;;;;;;;1.17;1.05;;;20.30;49.30;;;;;;5037511;28;20056;-80
2022/06/04 01:55:52;;;;;;;1.93;1.20;;;20.30;49.00;;;;;;5047680;28;20497;-81
2022/06/04 01:58:22;;;;;;;1.45;1.10;;;20.30;49.30;;;;;;5033749;28;20211;-81
2022/06/04 02:00:57;;;;;;;1.17;1.08;;;20.20;49.20;;;;;;5022723;28;20097;-81
2022/06/04 02:03:32;;;;;;;2.28;0.90;;;20.20;49.40;;;;;;5034335;28;20095;-79
2022/06/04 02:06:09;;;;;;;1.38;1.10;;;20.20;49.40;;;;;;5049402;28;20028;-80
2022/06/04 02:08:48;;;;;;;1.90;1.17;;;20.10;49.30;;;;;;5036284;28;20413;-80
2022/06/04 02:11:18;;;;;;;1.52;1.00;;;20.10;49.50;;;;;;5043171;28;20245;-80
2022/06/04 02:13:46;;;;;;;1.20;1.02;;;20.10;49.50;;;;;;5039075;28;20041;-81
2022/06/04 02:16:27;;;;;;;1.90;1.20;;;20.10;49.40;;;;;;5026622;28;20243;-81
2022/06/04 02:18:55;;;;;;;1.77;1.10;;;20.10;49.90;;;;;;5046428;28;20219;-80
2022/06/04 02:21:22;;;;;;;1.50;1.00;;;20.00;49.50;;;;;;5043728;28;20035;-80
2022/06/04 02:23:48;;;;;;;1.33;1.02;;;20.00;49.40;;;;;;5046307;28;20032;-79
2022/06/04 02:26:15;;;;;;;1.15;1.00;;;20.00;49.40;;;;;;5048913;28;20114;-80
2022/06/04 02:28:41;;;;;;;1.88;1.13;;;19.90;49.40;;;;;;5041614;28;20025;-80
2022/06/04 02:31:39;;;;;;;2.42;1.20;;;19.90;49.50;;;;;;5019202;28;20523;-80
2022/06/04 02:34:16;;;;;;;1.47;1.00;;;19.80;49.90;;;;;;5039570;28;20429;-79
2022/06/04 02:36:52;;;;;;;1.80;0.98;;;19.80;49.60;;;;;;5045186;28;20036;-80
2022/06/04 02:39:34;;;;;;;2.03;1.08;;;19.80;50.20;;;;;;5034602;28;20149;-81
2022/06/04 02:42:15;;;;;;;1.50;1.17;;;19.70;50.00;;;;;;5053873;28;20040;-81
2022/06/04 02:44:55;;;;;;;2.50;1.30;;;19.70;50.00;;;;;;5032277;28;20119;-81
2022/06/04 02:47:35;;;;;;;1.30;1.10;;;19.70;50.30;;;;;;5027540;28;20768;-79
2022/06/04 02:50:24;;;;;;;1.50;1.10;;;19.60;50.20;;;;;;5043466;28;20063;-80
2022/06/04 02:52:53;;;;;;;1.30;1.02;;;19.50;50.40;;;;;;5051497;28;20029;-80
2022/06/04 02:55:23;;;;;;;1.70;1.20;;;19.50;50.00;;;;;;5042204;28;20037;-80
2022/06/04 02:57:52;;;;;;;1.10;1.00;;;19.40;50.10;;;;;;5052408;28;20040;-80
2022/06/04 03:00:21;;;;;;;1.83;1.30;;;19.40;50.10;;;;;;5038193;28;20048;-81
2022/06/04 03:02:47;;;;;;;2.80;1.20;;;19.30;50.10;;;;;;5019822;28;20037;-80
2022/06/04 03:05:19;;;;;;;1.92;1.20;;;19.20;50.00;;;;;;5056031;28;20040;-81
2022/06/04 03:07:49;;;;;;;1.30;1.08;;;19.20;50.50;;;;;;5072243;28;20036;-81
2022/06/04 03:10:22;;;;;;;1.60;1.13;;;19.20;50.20;;;;;;5030734;28;20032;-79
2022/06/04 03:12:47;;;;;;;1.10;1.00;;;19.10;50.60;;;;;;5063931;28;20443;-80
2022/06/04 03:15:13;;;;;;;1.30;1.10;;;19.00;50.30;;;;;;5044901;28;20039;-79
2022/06/04 03:17:41;;;;;;;1.40;1.00;;;19.00;50.40;;;;;;5027442;28;20233;-81
2022/06/04 03:20:07;;;;;;;2.05;1.10;;;19.00;50.40;;;;;;5059989;28;20036;-80
2022/06/04 03:22:34;;;;;;;2.83;1.17;;;18.90;50.50;;;;;;5044913;28;20039;-81
2022/06/04 03:25:00;;;;;;;1.73;1.08;;;18.90;50.50;;;;;;5048276;28;20229;-80
2022/06/04 03:27:25;;;;;;;2.03;1.10;;;18.90;50.50;;;;;;5053894;28;20496;-80
2022/06/04 03:29:51;;;;;;;1.30;1.00;;;18.80;50.60;;;;;;5043735;28;20029;-79
2022/06/04 03:32:17;;;;;;;1.50;1.13;;;18.80;50.70;;;;;;5049611;28;20029;-81
2022/06/04 03:34:42;;;;;;;2.17;1.10;;;18.80;50.70;;;;;;5026713;28;20076;-80
2022/06/04 03:37:08;;;;;;;1.67;1.10;;;18.70;50.70;;;;;;5047823;28;20047;-80
2022/06/04 03:39:34;;;;;;;1.40;1.20;;;18.70;50.80;;;;;;5052409;28;20368;-79
2022/06/04 03:42:01;;;;;;;1.67;1.20;;;18.60;50.90;;;;;;5043922;28;20033;-80
2022/06/04 03:44:27;;;;;;;1.47;1.03;;;18.60;51.00;;;;;;5058890;28;20238;-80
2022/06/04 03:46:53;;;;;;;2.08;1.20;;;18.60;51.10;;;;;;5042284;28;20021;-80
2022/06/04 03:49:19;;;;;;;2.75;1.20;;;18.50;51.10;;;;;;5035247;28;20037;-80
2022/06/04 03:51:45;;;;;;;1.58;1.10;;;18.50;51.30;;;;;;5041970;28;20089;-80
2022/06/04 03:54:11;;;;;;;1.43;1.10;;;18.50;51.10;;;;;;5044570;28;20044;-80
2022/06/04 03:56:37;;;;;;;1.73;1.27;;;18.40;51.30;;;;;;5042225;28;20029;-81
2022/06/04 03:59:03;;;;;;;2.50;1.27;;;18.40;51.30;;;;;;5039330;28;20409;-80
2022/06/04 04:01:30;;;;;;;1.73;1.10;;;18.40;51.40;;;;;;5035105;28;20215;-81
2022/06/04 04:03:57;;;;;;;1.45;1.00;;;18.40;51.50;;;;;;5043110;28;20057;-80
2022/06/04 04:06:26;;;;;;;1.35;1.10;;;18.40;51.60;;;;;;5033187;28;20033;-81
2022/06/04 04:08:52;;;;;;;2.65;1.10;;;18.40;51.70;;;;;;5041561;28;20122;-80
2022/06/04 04:11:22;;;;;;;1.43;1.13;;;18.40;51.70;;;;;;5036993;28;20055;-81
2022/06/04 04:13:48;;;;;;;1.60;1.10;;;18.30;51.80;;;;;;5050292;28;20283;-79
2022/06/04 04:16:15;;;;;;;1.55;1.10;;;18.30;51.90;;;;;;5039243;28;20037;-81
2022/06/04 04:18:41;;;;;;;1.40;1.20;;;18.30;52.10;;;;;;5048449;28;20137;-81
2022/06/04 04:21:10;;;;;;;1.83;1.10;;;18.40;51.90;;;;;;5022678;28;20041;-81
2022/06/04 04:23:37;;;;;;;1.43;1.10;;;18.40;52.10;;;;;;5026551;28;20057;-80
2022/06/04 04:26:04;;;;;;;1.80;1.30;;;18.30;52.10;;;;;;5044963;28;20483;-81
2022/06/04 04:28:30;;;;;;;1.90;1.10;;;18.30;52.10;;;;;;5027834;28;20470;-80
2022/06/04 04:30:56;;;;;;;2.55;1.10;;;18.40;52.80;;;;;;5048804;28;20199;-80
2022/06/04 04:33:22;;;;;;;1.48;1.30;;;18.40;52.10;;;;;;5035875;28;20549;-80
2022/06/04 04:35:48;;;;;;;1.40;1.10;;;18.30;52.10;;;;;;5051508;28;20111;-79
2022/06/04 04:38:15;;;;;;;2.13;1.17;;;18.40;52.10;;;;;;5022717;28;20064;-79
2022/06/04 04:40:42;;;;;;;2.08;1.20;;;18.30;52.10;;;;;;5039497;28;20530;-80
2022/06/04 04:43:08;;;;;;;4.67;1.40;;;18.30;52.30;;;;;;5041283;28;20036;-81
2022/06/04 04:45:34;;;;;;;2.95;1.35;;;18.30;52.20;;;;;;5039660;28;20307;-79
2022/06/04 04:48:00;;;;;;;1.70;1.10;;;18.30;52.20;;;;;;5038801;28;20150;-79
2022/06/04 04:50:30;;;;;;;1.47;1.17;;;18.30;52.40;;;;;;5050537;28;20033;-80
2022/06/04 04:52:57;;;;;;;1.80;1.30;;;18.30;52.60;;;;;;5028615;28;20025;-80
2022/06/04 04:55:23;;;;;;;2.55;1.25;;;18.30;52.60;;;;;;5036868;28;20037;-80
2022/06/04 04:57:49;;;;;;;1.92;1.40;;;18.30;52.40;;;;;;5038656;28;20029;-79
2022/06/04 05:00:15;;;;;;;1.53;1.07;;;18.30;52.50;;;;;;5039834;28;20328;-81
2022/06/04 05:02:42;;;;;;;1.33;1.13;;;18.30;52.40;;;;;;5044638;28;20032;-80
2022/06/04 05:05:09;;;;;;;2.22;1.35;;;18.30;52.50;;;;;;5009752;28;20240;-80
2022/06/04 05:07:35;;;;;;;2.42;1.30;;;18.30;52.50;;;;;;5033422;28;20040;-80
2022/06/04 05:10:00;;;;;;;1.83;1.20;;;18.30;52.70;;;;;;5038118;28;20033;-80
2022/06/04 05:12:26;;;;;;;1.90;1.40;;;18.30;52.70;;;;;;5050360;28;20029;-80
2022/06/04 05:14:52;;;;;;;1.73;1.23;;;18.30;52.70;;;;;;5034562;28;20116;-79
2022/06/04 05:17:18;;;;;;;1.40;1.20;;;18.40;52.80;;;;;;5050410;28;20113;-80
2022/06/04 05:19:44;;;;;;;1.65;1.20;;;18.40;52.80;;;;;;5044043;28;20184;-80
2022/06/04 05:22:09;;;;;;;1.87;1.27;;;18.40;52.70;;;;;;5012321;28;20298;-81
2022/06/04 05:24:37;;;;;;;1.40;1.10;;;18.30;52.70;;;;;;5050199;28;20065;-81
2022/06/04 05:27:04;;;;;;;2.17;1.48;;;18.40;52.90;;;;;;5016391;28;20690;-80
2022/06/04 05:29:31;;;;;;;1.87;1.37;;;18.40;52.80;;;;;;5033507;28;20047;-81
2022/06/04 05:31:57;;;;;;;2.10;1.38;;;18.40;52.90;;;;;;5038952;28;20039;-79
2022/06/04 05:34:24;;;;;;;2.35;1.40;;;18.40;52.90;;;;;;5042392;28;20041;-79
2022/06/04 05:36:53;;;;;;;1.70;1.27;;;18.40;53.10;;;;;;5017911;28;20317;-79
2022/06/04 05:39:19;;;;;;;1.92;1.40;;;18.40;53.20;;;;;;5028363;28;20466;-79
2022/06/04 05:41:46;;;;;;;2.60;1.50;;;18.50;53.20;;;;;;5032912;28;20538;-79
2022/06/04 05:44:12;;;;;;;2.10;1.40;;;18.50;53.30;;;;;;5034718;28;22608;-80
2022/06/04 05:46:44;;;;;;;2.88;1.50;;;18.50;53.20;;;;;;5048054;28;20029;-81
2022/06/04 05:49:12;;;;;;;1.80;1.50;;;18.60;53.40;;;;;;5035741;28;20181;-79
2022/06/04 05:51:39;;;;;;;3.50;1.35;;;18.60;53.30;;;;;;5036336;28;20116;-80
2022/06/04 05:54:05;;;;;;;2.80;1.30;;;18.60;53.20;;;;;;5004108;28;20385;-80
2022/06/04 05:56:34;;;;;;;2.00;1.58;;;18.60;53.20;;;;;;5047888;28;20033;-80
2022/06/04 05:59:03;;;;;;;2.35;1.60;;;18.70;53.40;;;;;;5025259;28;20045;-79
2022/06/04 06:01:31;;;;;;;2.20;1.60;;;18.70;53.50;;;;;;5032034;28;20041;-79
2022/06/04 06:03:57;;;;;;;2.15;1.45;;;18.70;53.40;;;;;;5046391;28;20094;-80
2022/06/04 06:06:27;;;;;;;2.63;1.30;;;18.80;53.50;;;;;;5036919;28;20536;-80
2022/06/04 06:08:54;;;;;;;3.45;1.90;;;18.70;53.50;;;;;;5031378;28;20041;-80
2022/06/04 06:11:21;;;;;;;2.25;1.40;;;18.80;53.50;;;;;;5026880;28;20021;-78
2022/06/04 06:13:49;;;;;;;2.45;1.60;;;18.80;53.40;;;;;;5039288;28;20473;-79
2022/06/04 06:16:18;;;;;;;2.15;1.70;;;18.80;53.50;;;;;;5035722;28;20201;-80
2022/06/04 06:18:44;;;;;;;2.30;1.40;;;18.80;53.50;;;;;;5049488;28;20097;-79
2022/06/04 06:21:16;;;;;;;2.55;1.60;;;18.80;53.40;;;;;;5029621;28;20420;-80
2022/06/04 06:23:43;;;;;;;2.22;1.60;;;18.80;53.60;;;;;;5031487;28;20056;-81
2022/06/04 06:26:18;;;;;;;2.60;1.65;;;18.80;53.50;;;;;;5022144;28;20477;-79
2022/06/04 06:28:44;;;;;;;2.47;1.63;;;18.80;53.80;;;;;;5051838;28;20036;-80
2022/06/04 06:31:13;;;;;;;2.35;1.60;;;18.80;53.50;;;;;;5035339;28;20037;-80
2022/06/04 06:33:38;;;;;;;2.95;1.48;;;18.80;53.60;;;;;;5049291;28;20033;-80
2022/06/04 06:36:07;;;;;;;2.00;1.43;;;18.80;53.70;;;;;;5040003;28;20037;-79
2022/06/04 06:38:33;;;;;;;2.37;1.63;;;18.80;53.70;;;;;;5018654;28;20286;-80
2022/06/04 06:41:00;;;;;;;2.65;1.77;;;18.80;53.80;;;;;;5028618;28;20333;-81
2022/06/04 06:46:12;;;;;;;3.20;1.90;;;18.80;53.60;;;;;;5024635;28;20044;-80
2022/06/04 06:48:41;;;;;;;3.33;1.88;;;18.80;54.00;;;;;;5059154;28;20036;-81
2022/06/04 06:51:13;;;;;;;2.97;2.03;;;18.80;53.90;;;;;;5041962;28;20028;-80
2022/06/04 06:53:40;;;;;;;2.50;1.80;;;18.80;53.90;;;;;;5023590;28;20439;-80
2022/06/04 06:56:18;;;;;;;2.78;1.95;;;18.80;53.90;;;;;;5051561;28;20068;-80
2022/06/04 06:58:43;;;;;;;2.88;1.80;;;18.80;54.50;;;;;;5032997;28;20044;-80
2022/06/04 07:01:11;;;;;;;2.57;1.83;;;18.90;54.10;;;;;;5023154;28;20037;-80
2022/06/04 07:03:39;;;;;;;3.17;2.03;;;18.90;54.30;;;;;;5039015;28;20286;-80
2022/06/04 07:06:07;;;;;;;2.10;1.70;;;18.90;54.50;;;;;;5047685;28;20051;-79
2022/06/04 07:08:37;;;;;;;3.00;1.90;;;19.00;54.60;;;;;;5032710;28;20497;-80
2022/06/04 07:11:03;;;;;;;3.92;2.10;;;19.00;54.60;;;;;;5023073;28;20033;-80
2022/06/04 07:13:29;;;;;;;3.83;2.00;;;19.10;54.70;;;;;;5021376;28;20102;-80
2022/06/04 07:15:54;;;;;;;2.03;1.80;;;19.20;54.70;;;;;;5026749;28;20451;-80
2022/06/04 07:18:21;;;;;;;3.30;2.00;;;19.20;54.80;;;;;;5042892;28;20504;-80
2022/06/04 07:20:47;;;;;;;2.60;2.00;;;19.30;54.90;;;;;;5043438;28;20484;-78
2022/06/04 07:23:13;;;;;;;3.72;2.10;;;19.50;55.20;;;;;;5028464;28;20553;-79
2022/06/04 07:25:41;;;;;;;2.45;1.95;;;19.60;55.30;;;;;;5036362;28;20650;-79
2022/06/04 07:28:09;;;;;;;3.25;1.90;;;19.70;55.30;;;;;;5018119;28;20409;-80
2022/06/04 07:30:35;;;;;;;3.25;2.20;;;19.90;55.50;;;;;;5037064;28;20056;-80
2022/06/04 07:33:00;;;;;;;2.90;1.90;;;20.10;55.60;;;;;;5030880;28;20037;-81
2022/06/04 07:35:27;;;;;;;4.18;2.30;;;20.30;55.30;;;;;;5043709;28;20552;-81
2022/06/04 07:37:53;;;;;;;2.57;2.00;;;20.40;55.20;;;;;;5042263;28;20089;-80
2022/06/04 07:40:19;;;;;;;2.88;2.00;;;20.60;55.30;;;;;;5015590;28;20100;-81
2022/06/04 07:42:46;;;;;;;3.00;2.07;;;20.80;55.40;;;;;;5044184;28;20043;-79
2022/06/04 07:45:12;;;;;;;6.25;1.98;;;21.00;55.70;;;;;;5025451;28;20100;-80
2022/06/04 07:47:40;;;;;;;4.88;2.10;;;21.40;56.00;;;;;;5029195;28;20035;-80
2022/06/04 07:50:07;;;;;;;2.55;2.00;;;21.60;55.70;;;;;;5040206;28;20575;-80
2022/06/04 07:52:34;;;;;;;3.20;2.20;;;21.90;55.50;;;;;;5047224;28;20028;-79
2022/06/04 07:55:00;;;;;;;3.20;2.13;;;22.20;54.80;;;;;;5039310;28;20036;-81
2022/06/04 07:57:26;;;;;;;4.13;2.33;;;22.40;54.60;;;;;;5005127;28;20258;-81
2022/06/04 07:59:53;;;;;;;2.70;2.13;;;22.60;54.00;;;;;;5012853;28;20033;-80
2022/06/04 08:02:21;;;;;;;3.00;2.10;;;22.80;53.90;;;;;;5031494;28;20047;-79
2022/06/04 08:04:47;;;;;;;3.72;2.20;;;23.00;53.90;;;;;;5039188;28;20029;-81
2022/06/04 08:07:13;;;;;;;4.23;1.97;;;23.10;53.50;;;;;;5043949;28;20061;-79
2022/06/04 08:09:39;;;;;;;4.55;2.20;;;23.30;53.40;;;;;;5042251;28;20111;-78
2022/06/04 08:12:05;;;;;;;3.00;2.20;;;23.50;53.30;;;;;;5031149;28;20018;-79
2022/06/04 08:14:30;;;;;;;3.67;2.20;;;23.70;52.90;;;;;;5023882;28;20728;-79
2022/06/04 08:16:59;;;;;;;3.08;2.35;;;23.90;52.70;;;;;;5032272;28;20076;-79
2022/06/04 08:19:28;;;;;;;3.88;2.30;;;24.00;52.10;;;;;;5046423;28;20307;-80
2022/06/04 08:21:55;;;;;;;3.83;2.20;;;24.20;52.10;;;;;;5038269;28;20067;-79
2022/06/04 08:24:22;;;;;;;3.10;2.22;;;24.30;52.10;;;;;;5051746;28;20035;-80
2022/06/04 08:26:53;;;;;;;3.42;2.08;;;24.50;52.10;;;;;;5020788;28;20079;-79
2022/06/04 08:29:20;;;;;;;3.30;2.35;;;24.80;52.40;;;;;;5023603;28;20028;-78
2022/06/04 08:31:46;;;;;;;4.68;2.60;;;25.10;52.70;;;;;;5039454;28;20029;-79
2022/06/04 08:34:12;;;;;;;3.73;2.40;;;25.40;52.70;;;;;;5032255;28;20063;-79
2022/06/04 08:36:38;;;;;;;4.30;2.30;;;25.80;52.50;;;;;;5044107;28;20320;-78
2022/06/04 08:39:05;;;;;;;3.33;2.38;;;26.10;52.20;;;;;;5049207;28;20527;-78
2022/06/04 08:41:38;;;;;;;3.00;2.17;;;26.50;52.10;;;;;;5034994;28;20040;-79
2022/06/04 08:44:24;;;;;;;3.60;2.38;;;26.80;50.60;;;;;;5040619;28;20745;-79
2022/06/04 08:47:15;;;;;;;2.63;2.20;;;27.20;49.40;;;;;;4996036;28;20047;-78
2022/06/04 08:49:47;;;;;;;2.78;2.10;;;27.40;49.00;;;;;;5041928;28;20028;-78
2022/06/04 08:52:18;;;;;;;3.47;2.58;;;27.50;48.50;;;;;;5032119;28;20039;-80
2022/06/04 08:57:51;;;;;;;2.83;2.13;;;27.80;48.30;;;;;;5023601;28;20037;-79
2022/06/04 09:00:39;;;;;;;3.35;2.45;;;27.90;47.70;;;;;;5049418;28;20037;-80
2022/06/04 09:03:09;;;;;;;5.07;2.40;;;28.00;48.00;;;;;;5003467;28;20471;-80
2022/06/04 09:05:54;;;;;;;3.13;2.00;;;28.30;48.30;;;;;;5054813;28;20033;-79
2022/06/04 09:08:38;;;;;;;5.10;2.50;;;28.50;48.10;;;;;;5040348;28;20188;-79
2022/06/04 09:11:20;;;;;;;3.20;2.28;;;28.70;46.50;;;;;;5033119;28;20434;-78
2022/06/04 09:14:11;;;;;;;4.03;2.47;;;29.00;46.90;;;;;;5036940;28;20059;-79
2022/06/04 09:16:39;;;;;;;2.63;2.40;;;29.20;45.60;;;;;;5027104;28;20028;-80
2022/06/04 09:19:25;;;;;;;2.80;2.30;;;29.40;46.20;;;;;;5038792;28;20047;-79
2022/06/04 09:21:52;;;;;;;3.07;2.40;;;29.70;45.90;;;;;;5055379;28;20040;-80
2022/06/04 09:24:17;;;;;;;3.60;2.70;;;29.90;45.90;;;;;;5052500;28;20094;-79
2022/06/04 09:27:05;;;;;;;2.90;2.60;;;30.00;45.20;;;;;;5034397;28;20033;-79
2022/06/04 09:29:55;;;;;;;4.57;2.80;;;30.10;43.60;;;;;;5035967;28;20396;-79
2022/06/04 09:32:55;;;;;;;3.13;2.53;;;30.20;43.50;;;;;;5037264;28;20037;-79
2022/06/04 09:35:28;;;;;;;3.30;2.75;;;30.20;42.30;;;;;;5034932;28;20240;-80
2022/06/04 09:37:53;;;;;;;3.28;2.42;;;30.00;42.40;;;;;;5047756;28;20033;-79
2022/06/04 09:40:38;;;;;;;4.20;2.70;;;30.00;42.90;;;;;;5052475;28;20228;-80
2022/06/04 09:43:07;;;;;;;3.47;2.65;;;29.80;42.50;;;;;;5031838;28;20444;-79
2022/06/04 09:45:32;;;;;;;3.08;2.67;;;29.60;41.90;;;;;;5036944;28;20340;-80
2022/06/04 09:47:59;;;;;;;3.93;3.00;;;29.40;41.70;;;;;;5030946;28;20448;-80
2022/06/04 09:50:28;;;;;;;4.15;2.97;;;29.10;41.50;;;;;;5042332;28;20598;-80
2022/06/04 09:53:21;;;;;;;3.95;2.90;;;28.80;41.40;;;;;;5058852;28;20120;-79
2022/06/04 09:56:07;;;;;;;3.60;3.17;;;28.60;41.50;;;;;;5054036;28;20041;-80
2022/06/04 09:58:39;;;;;;;3.70;2.75;;;28.30;42.50;;;;;;5044250;28;20029;-79
2022/06/04 10:01:07;;;;;;;3.87;2.80;;;28.20;42.10;;;;;;5045358;28;20059;-79
2022/06/04 10:03:39;;;;;;;3.92;3.10;;;28.10;43.50;;;;;;5030573;28;20047;-79
2022/06/04 10:06:14;;;;;;;4.15;3.03;;;27.90;42.90;;;;;;5030659;28;20056;-78
2022/06/04 10:11:51;;;;;;;4.38;2.80;;;27.90;43.30;;;;;;5058334;28;20036;-79
2022/06/04 10:14:31;;;;;;;4.03;2.90;;;28.00;43.00;;;;;;5037701;28;20025;-79
2022/06/04 10:16:57;;;;;;;3.67;2.85;;;28.00;42.90;;;;;;5048425;28;20060;-77
2022/06/04 10:19:24;;;;;;;3.75;3.15;;;27.90;42.90;;;;;;5027844;28;20932;-78
2022/06/04 10:22:08;;;;;;;3.72;3.20;;;27.90;42.80;;;;;;5038801;28;20073;-79
2022/06/04 10:24:42;;;;;;;3.92;3.20;;;27.80;42.40;;;;;;5054614;28;20043;-79
2022/06/04 10:27:27;;;;;;;4.73;3.40;;;27.80;42.90;;;;;;5028617;28;20966;-78
2022/06/04 10:30:13;;;;;;;5.72;3.17;;;27.80;43.00;;;;;;5037187;28;20489;-78
2022/06/04 10:32:44;;;;;;;4.57;3.17;;;27.80;43.20;;;;;;5045158;28;20509;-79
2022/06/04 10:35:17;;;;;;;5.47;3.25;;;27.80;43.30;;;;;;5028957;28;20123;-79
2022/06/04 10:38:11;;;;;;;4.47;3.30;;;27.80;43.10;;;;;;5042963;28;20559;-79
2022/06/04 10:40:52;;;;;;;3.50;3.17;;;27.80;42.90;;;;;;5053720;28;20029;-80
2022/06/04 10:43:42;;;;;;;4.43;3.17;;;27.80;43.20;;;;;;5038646;28;20481;-80
2022/06/04 10:46:41;;;;;;;4.07;3.25;;;27.80;43.00;;;;;;5036893;28;20326;-78
2022/06/04 10:49:15;;;;;;;4.15;3.10;;;27.90;43.70;;;;;;5023554;28;20047;-80
2022/06/04 10:51:52;;;;;;;4.25;3.63;;;28.10;44.50;;;;;;5045977;28;20101;-80
2022/06/04 10:54:43;;;;;;;5.13;3.60;;;28.40;45.00;;;;;;5050115;28;20025;-80
2022/06/04 10:57:19;;;;;;;5.07;3.50;;;28.70;44.80;;;;;;5051273;28;20029;-80
2022/06/04 11:00:00;;;;;;;4.35;3.78;;;29.10;44.90;;;;;;5042196;28;20036;-78
2022/06/04 11:02:34;;;;;;;4.18;3.70;;;29.50;44.20;;;;;;5063019;28;20463;-80
2022/06/04 11:05:04;;;;;;;4.20;3.13;;;29.90;44.90;;;;;;5021136;28;20829;-79
2022/06/04 11:08:12;;;;;;;3.83;3.17;;;30.20;44.90;;;;;;5051154;28;20698;-80
2022/06/04 11:10:43;;;;;;;6.32;3.08;;;30.70;43.60;;;;;;5043985;28;20037;-78
2022/06/04 11:13:27;;;;;;;4.80;3.13;;;31.00;43.60;;;;;;5062221;28;20250;-78
2022/06/04 11:16:11;;;;;;;4.25;3.30;;;31.30;43.40;;;;;;5028907;28;20039;-78
2022/06/04 11:19:04;;;;;;;4.65;3.42;;;31.70;42.00;;;;;;5047665;28;20049;-79
2022/06/04 11:22:06;;;;;;;5.03;3.77;;;31.90;41.60;;;;;;5063970;28;20459;-80
2022/06/04 11:24:56;;;;;;;3.75;3.35;;;32.20;41.00;;;;;;5053503;28;20036;-79
2022/06/04 11:27:28;;;;;;;4.25;3.55;;;32.40;40.40;;;;;;5054272;28;20033;-79
2022/06/04 11:29:55;;;;;;;3.90;3.28;;;32.50;40.90;;;;;;5033451;28;20036;-79
2022/06/04 11:32:44;;;;;;;3.40;3.10;;;32.70;41.40;;;;;;5049594;28;20465;-80
2022/06/04 11:35:30;;;;;;;3.87;3.07;;;32.90;39.50;;;;;;5011796;28;20074;-79
2022/06/04 11:37:59;;;;;;;4.60;3.65;;;33.10;40.70;;;;;;5037200;28;20040;-80
2022/06/04 11:40:31;;;;;;;3.85;3.38;;;33.20;40.40;;;;;;5042550;28;20121;-78
2022/06/04 11:43:22;;;;;;;4.60;3.55;;;33.30;40.00;;;;;;5043064;28;20336;-79
2022/06/04 11:46:03;;;;;;;4.78;3.42;;;33.50;38.60;;;;;;5035793;28;20048;-78
2022/06/04 11:48:38;;;;;;;4.70;3.70;;;33.60;38.70;;;;;;5043386;28;20482;-78
2022/06/04 11:51:25;;;;;;;4.15;3.28;;;33.70;38.50;;;;;;5025764;28;21267;-80
2022/06/04 11:53:59;;;;;;;3.88;3.17;;;33.70;38.10;;;;;;5050786;28;20332;-79
2022/06/04 11:56:57;;;;;;;4.30;3.72;;;33.80;38.50;;;;;;5030370;28;20058;-79
2022/06/04 11:59:53;;;;;;;4.53;3.83;;;33.80;38.00;;;;;;5040252;28;20033;-80
2022/06/04 12:02:19;;;;;;;4.20;3.80;;;33.90;37.70;;;;;;5050544;28;20037;-79
2022/06/04 12:05:13;;;;;;;4.05;3.58;;;34.00;38.10;;;;;;5044196;28;20037;-79
2022/06/04 12:07:42;;;;;;;4.93;3.90;;;34.10;37.10;;;;;;5027408;28;20240;-79
2022/06/04 12:10:44;;;;;;;3.87;3.40;;;34.20;37.70;;;;;;5055292;28;20032;-80
2022/06/04 12:13:50;;;;;;;4.05;3.58;;;34.30;37.00;;;;;;5044870;28;20059;-79
2022/06/04 12:16:36;;;;;;;5.05;3.28;;;34.40;37.00;;;;;;5053297;28;20059;-79
2022/06/04 12:25:01;;;;;;;4.30;3.13;;;34.70;36.30;;;;;;5061878;28;20493;-79
2022/06/04 12:27:27;;;;;;;4.03;3.60;;;34.70;36.70;;;;;;5032054;28;20040;-80
2022/06/04 12:29:54;;;;;;;4.13;3.38;;;34.70;36.30;;;;;;5036391;28;20036;-81
2022/06/04 12:32:33;;;;;;;3.90;3.40;;;34.70;36.70;;;;;;5045119;28;20105;-79
2022/06/04 12:35:11;;;;;;;3.95;3.40;;;34.90;36.90;;;;;;5044910;28;20037;-79
2022/06/04 12:37:40;;;;;;;4.05;3.65;;;35.00;35.90;;;;;;5020703;28;20376;-79
2022/06/04 12:40:23;;;;;;;4.13;3.63;;;35.10;36.10;;;;;;5058129;28;20048;-80
2022/06/04 12:43:13;;;;;;;4.05;3.30;;;35.20;35.50;;;;;;5040094;28;20686;-80
2022/06/04 12:45:45;;;;;;;3.77;3.30;;;35.20;35.70;;;;;;5060409;28;20103;-80
2022/06/04 12:48:32;;;;;;;4.05;3.10;;;35.20;35.70;;;;;;5051824;28;20086;-79
2022/06/04 12:51:01;;;;;;;4.05;3.60;;;35.20;35.10;;;;;;5060739;28;20132;-80
2022/06/04 12:53:30;;;;;;;3.38;3.05;;;35.20;35.20;;;;;;5029481;28;20029;-79
2022/06/04 12:56:02;;;;;;;3.90;3.50;;;35.20;35.70;;;;;;5065057;28;20071;-80
2022/06/04 12:58:30;;;;;;;3.50;3.20;;;35.30;35.40;;;;;;5038475;28;20097;-80
2022/06/04 13:01:01;;;;;;;3.58;3.15;;;35.30;35.40;;;;;;5061229;28;20042;-80
2022/06/04 13:03:35;;;;;;;3.65;3.10;;;35.40;35.30;;;;;;5044188;28;20105;-78
2022/06/04 13:06:15;;;;;;;3.83;3.00;;;35.40;34.50;;;;;;5063732;28;20135;-79
2022/06/04 13:08:57;;;;;;;3.38;2.63;;;35.30;34.80;;;;;;5036783;28;21570;-79
2022/06/04 13:11:46;;;;;;;4.27;2.90;;;35.20;35.10;;;;;;5043506;28;20031;-80
2022/06/04 13:14:36;;;;;;;3.33;3.03;;;35.20;35.00;;;;;;5047703;28;20036;-79
2022/06/04 13:17:18;;;;;;;3.33;3.03;;;35.30;34.60;;;;;;5034860;28;20597;-80
2022/06/04 13:20:03;;;;;;;3.28;2.70;;;35.20;34.90;;;;;;5051470;28;20522;-80
2022/06/04 13:22:34;;;;;;;3.53;2.80;;;35.20;34.40;;;;;;5030074;28;20580;-79
2022/06/04 13:25:05;;;;;;;2.83;2.63;;;35.20;34.70;;;;;;5031555;28;20108;-79
2022/06/04 13:27:53;;;;;;;3.55;2.75;;;35.20;35.00;;;;;;5041685;28;20644;-79
2022/06/04 13:30:22;;;;;;;3.42;2.67;;;35.30;34.70;;;;;;5036199;28;20048;-81
2022/06/04 13:32:48;;;;;;;3.00;2.70;;;35.30;34.80;;;;;;5049588;28;20033;-80
2022/06/04 13:35:20;;;;;;;3.40;3.10;;;35.30;35.00;;;;;;5049790;28;20036;-80
2022/06/04 13:37:48;;;;;;;3.17;2.87;;;35.40;34.70;;;;;;5055011;28;20119;-79
2022/06/04 13:40:28;;;;;;;2.85;2.55;;;35.40;34.90;;;;;;5038474;28;20037;-79